Time;durP1;ratioP1;P1;durP2;ratioP2;P2;SDS_P1;SDS_P2;PMS_P1;PMS_P2;Temp;Humidity;BMP_temperature;BMP_pressure;BME280_temperature;BME280_humidity;BME280_pressure;Samples;Min_cycle;Max_cycle;Signal;HPM_P1;HPM_P2
2023/03/03 00:00:49;;;;;;;7.57;3.53;;;2.70;99.90;;;;;;4983864;28;20130;-71
2023/03/03 00:03:21;;;;;;;7.20;3.78;;;2.70;99.90;;;;;;4976809;28;20026;-72
2023/03/03 00:05:47;;;;;;;12.48;4.25;;;2.70;99.90;;;;;;4985434;28;20361;-72
2023/03/03 00:08:12;;;;;;;9.32;4.47;;;2.70;99.90;;;;;;4983131;28;20037;-72
2023/03/03 00:10:38;;;;;;;8.68;4.53;;;2.70;99.90;;;;;;4968647;28;20093;-72
2023/03/03 00:13:16;;;;;;;7.90;3.65;;;2.70;99.90;;;;;;4984956;28;20676;-72
2023/03/03 00:15:42;;;;;;;11.77;4.07;;;2.60;99.90;;;;;;4977296;28;20432;-71
2023/03/03 00:18:21;;;;;;;8.00;3.75;;;2.60;99.90;;;;;;4977573;28;20030;-73
2023/03/03 00:20:55;;;;;;;13.52;4.43;;;2.50;99.90;;;;;;4971076;28;20554;-72
2023/03/03 00:23:28;;;;;;;8.60;4.28;;;2.50;99.90;;;;;;4987323;28;20495;-72
2023/03/03 00:25:55;;;;;;;9.50;4.20;;;2.50;99.90;;;;;;4972579;28;20047;-71
2023/03/03 00:28:28;;;;;;;10.48;3.72;;;2.50;99.90;;;;;;4977846;28;20034;-72
2023/03/03 00:30:57;;;;;;;10.05;4.50;;;2.40;99.90;;;;;;4978233;28;20034;-72
2023/03/03 00:33:31;;;;;;;10.07;4.47;;;2.50;99.90;;;;;;4978970;28;20026;-71
2023/03/03 00:36:15;;;;;;;13.10;3.80;;;2.50;99.90;;;;;;4971796;28;20034;-71
2023/03/03 00:38:42;;;;;;;11.77;4.38;;;2.50;99.90;;;;;;4985988;28;20037;-71
2023/03/03 00:41:34;;;;;;;8.98;4.03;;;2.50;99.90;;;;;;4979401;28;20076;-73
2023/03/03 00:43:59;;;;;;;10.63;4.75;;;2.40;99.90;;;;;;4997723;28;20645;-72
2023/03/03 00:46:25;;;;;;;13.60;4.75;;;2.50;99.90;;;;;;4974389;28;20030;-73
2023/03/03 00:48:51;;;;;;;10.32;4.70;;;2.50;99.90;;;;;;4987521;28;20471;-71
2023/03/03 00:51:33;;;;;;;9.70;4.72;;;2.50;99.90;;;;;;4995466;28;20034;-71
2023/03/03 00:53:58;;;;;;;13.30;5.05;;;2.50;99.90;;;;;;4987248;28;20037;-72
2023/03/03 00:56:24;;;;;;;10.73;4.22;;;2.40;99.90;;;;;;4992755;28;20034;-72
2023/03/03 00:58:50;;;;;;;12.85;5.22;;;2.40;99.90;;;;;;4975898;28;20034;-72
2023/03/03 01:01:17;;;;;;;14.10;4.85;;;2.50;99.90;;;;;;4984142;28;20043;-72
2023/03/03 01:03:43;;;;;;;9.43;4.47;;;2.50;99.90;;;;;;4978855;28;20069;-72
2023/03/03 01:06:09;;;;;;;9.95;4.13;;;2.40;99.90;;;;;;4958571;28;20062;-72
2023/03/03 01:08:35;;;;;;;12.25;4.78;;;2.50;99.90;;;;;;5002377;28;20084;-72
2023/03/03 01:11:16;;;;;;;11.75;4.80;;;2.50;99.90;;;;;;4987771;28;20038;-72
2023/03/03 01:13:43;;;;;;;;;;;2.50;99.90;;;;;;4984045;28;20129;-72
2023/03/03 01:16:09;;;;;;;12.00;4.75;;;2.50;99.90;;;;;;4990678;28;19917;-72
2023/03/03 01:18:35;;;;;;;11.13;4.55;;;2.50;99.90;;;;;;5001970;28;20053;-72
2023/03/03 01:21:01;;;;;;;14.85;5.97;;;2.50;99.90;;;;;;4972944;28;20379;-73
2023/03/03 01:23:27;;;;;;;8.93;4.07;;;2.50;99.90;;;;;;4998044;28;20041;-72
2023/03/03 01:25:52;;;;;;;11.70;5.30;;;2.50;99.90;;;;;;5003645;28;20129;-71
2023/03/03 01:28:18;;;;;;;14.57;5.03;;;2.40;99.90;;;;;;4995331;28;20041;-72
2023/03/03 01:30:44;;;;;;;12.85;5.72;;;2.40;99.90;;;;;;4999343;28;20114;-71
2023/03/03 01:33:09;;;;;;;13.23;5.35;;;2.40;99.90;;;;;;4998494;28;20028;-73
2023/03/03 01:35:36;;;;;;;16.60;4.90;;;2.30;99.90;;;;;;4994936;28;20030;-72
2023/03/03 01:38:01;;;;;;;17.00;6.03;;;2.40;99.90;;;;;;4974283;28;20053;-72
2023/03/03 01:40:29;;;;;;;13.73;5.38;;;2.30;99.90;;;;;;5002982;28;20498;-72
2023/03/03 01:42:58;;;;;;;11.98;5.72;;;2.20;99.90;;;;;;4999147;28;20057;-72
2023/03/03 01:45:29;;;;;;;18.45;6.57;;;2.20;99.90;;;;;;4981830;28;20056;-72
2023/03/03 01:47:57;;;;;;;11.68;5.38;;;2.10;99.90;;;;;;5007096;28;20094;-71
2023/03/03 01:50:36;;;;;;;15.57;6.35;;;2.00;99.90;;;;;;5007289;28;20316;-72
2023/03/03 01:53:05;;;;;;;14.73;6.22;;;2.00;99.90;;;;;;5005412;28;20060;-72
2023/03/03 01:55:38;;;;;;;13.88;6.18;;;2.00;99.90;;;;;;5005375;28;20036;-72
2023/03/03 01:58:08;;;;;;;17.75;7.30;;;1.90;99.90;;;;;;4996571;28;20098;-71
2023/03/03 02:00:36;;;;;;;16.88;5.53;;;2.00;99.90;;;;;;5001899;28;20058;-72
2023/03/03 02:03:03;;;;;;;16.05;6.78;;;1.90;99.90;;;;;;5009926;28;20042;-71
2023/03/03 02:05:29;;;;;;;16.65;6.28;;;1.90;99.90;;;;;;4994959;28;20093;-72
2023/03/03 02:07:55;;;;;;;14.68;6.85;;;1.90;99.90;;;;;;5001936;28;20030;-72
2023/03/03 02:10:21;;;;;;;13.10;6.35;;;1.80;99.90;;;;;;4996472;28;20045;-72
2023/03/03 02:12:58;;;;;;;17.15;6.60;;;1.80;99.90;;;;;;4991435;28;20120;-72
2023/03/03 02:15:25;;;;;;;16.77;7.07;;;1.80;99.90;;;;;;4990496;28;20041;-72
2023/03/03 02:18:02;;;;;;;15.45;6.82;;;1.80;99.90;;;;;;4983824;28;20041;-71
2023/03/03 02:20:58;;;;;;;12.82;6.63;;;1.80;99.90;;;;;;5003989;28;20386;-71
2023/03/03 02:23:36;;;;;;;17.10;5.93;;;1.80;99.90;;;;;;4992969;28;20038;-72
2023/03/03 02:26:10;;;;;;;17.50;6.05;;;1.80;99.90;;;;;;5013091;28;20125;-72
2023/03/03 02:28:37;;;;;;;15.38;6.65;;;1.80;99.90;;;;;;4993847;28;20030;-71
2023/03/03 02:31:12;;;;;;;15.52;6.93;;;1.90;99.90;;;;;;4988721;28;20089;-71
2023/03/03 02:33:38;;;;;;;13.52;6.22;;;1.90;99.90;;;;;;4988424;28;20636;-73
2023/03/03 02:36:04;;;;;;;21.20;8.23;;;1.90;99.90;;;;;;4978038;28;20046;-73
2023/03/03 02:38:43;;;;;;;15.13;6.75;;;1.80;99.90;;;;;;4982369;28;20039;-72
2023/03/03 02:41:25;;;;;;;13.30;5.15;;;1.90;99.90;;;;;;4960920;28;20027;-73
2023/03/03 02:44:06;;;;;;;16.17;6.45;;;1.90;99.90;;;;;;4980981;28;20042;-72
2023/03/03 02:46:34;;;;;;;19.30;6.63;;;1.90;99.90;;;;;;4955326;28;20066;-73
2023/03/03 02:49:00;;;;;;;13.30;6.00;;;1.90;99.90;;;;;;4960815;28;20065;-72
2023/03/03 02:51:26;;;;;;;14.70;6.38;;;1.90;99.90;;;;;;4977725;28;20039;-73
2023/03/03 02:53:52;;;;;;;15.80;6.40;;;1.80;99.90;;;;;;4979192;28;20035;-72
2023/03/03 02:56:18;;;;;;;19.83;6.18;;;1.80;99.90;;;;;;4979016;28;20419;-72
2023/03/03 02:58:43;;;;;;;14.40;6.13;;;1.80;99.90;;;;;;4975748;28;20026;-72
2023/03/03 03:01:09;;;;;;;20.35;7.80;;;1.80;99.90;;;;;;4969524;28;20038;-73
2023/03/03 03:03:34;;;;;;;20.83;5.63;;;1.80;99.90;;;;;;4984479;28;20034;-72
2023/03/03 03:06:00;;;;;;;16.48;5.43;;;1.80;99.90;;;;;;4977751;28;20050;-72
2023/03/03 03:08:26;;;;;;;14.65;5.90;;;1.80;99.90;;;;;;4970869;28;20407;-73
2023/03/03 03:10:51;;;;;;;19.75;6.88;;;1.80;99.90;;;;;;4976673;28;20038;-71
2023/03/03 03:13:17;;;;;;;15.85;6.57;;;1.70;99.90;;;;;;4976527;28;20047;-71
2023/03/03 03:15:45;;;;;;;14.38;5.32;;;1.70;99.90;;;;;;4973944;28;20035;-72
2023/03/03 03:18:11;;;;;;;13.48;6.47;;;1.70;99.90;;;;;;4966185;28;20034;-71
2023/03/03 03:20:38;;;;;;;13.02;5.53;;;1.80;99.90;;;;;;4964354;28;20034;-72
2023/03/03 03:23:05;;;;;;;13.43;5.72;;;1.80;99.90;;;;;;4979913;28;20038;-72
2023/03/03 03:25:30;;;;;;;12.93;5.93;;;1.70;99.90;;;;;;4969611;28;20109;-72
2023/03/03 03:27:56;;;;;;;18.55;5.90;;;1.80;99.90;;;;;;4979184;28;20094;-72
2023/03/03 03:30:22;;;;;;;15.73;6.13;;;1.70;99.90;;;;;;4977152;28;20038;-71
2023/03/03 03:32:47;;;;;;;15.00;5.57;;;1.70;99.90;;;;;;4971034;28;20062;-71
2023/03/03 03:35:14;;;;;;;16.38;6.55;;;1.70;99.90;;;;;;4974591;28;20075;-72
2023/03/03 03:37:40;;;;;;;16.92;6.00;;;1.80;99.90;;;;;;4976296;28;20041;-72
2023/03/03 03:40:06;;;;;;;15.07;6.25;;;1.80;99.90;;;;;;4978374;28;20110;-71
2023/03/03 03:42:31;;;;;;;16.80;6.15;;;1.80;99.90;;;;;;4973968;28;20398;-72
2023/03/03 03:44:57;;;;;;;15.00;6.35;;;1.80;99.90;;;;;;4982801;28;20031;-71
2023/03/03 03:47:23;;;;;;;15.57;6.80;;;1.90;99.90;;;;;;4973415;28;20045;-72
2023/03/03 03:49:48;;;;;;;17.85;7.63;;;1.90;99.90;;;;;;4969744;28;20476;-71
2023/03/03 03:52:14;;;;;;;16.45;6.68;;;1.90;99.90;;;;;;4972099;28;20096;-72
2023/03/03 03:54:39;;;;;;;21.88;7.05;;;1.90;99.90;;;;;;4970703;28;20031;-72
2023/03/03 03:57:05;;;;;;;16.35;7.32;;;1.90;99.90;;;;;;4977865;28;20077;-73
2023/03/03 03:59:30;;;;;;;23.70;8.32;;;1.90;99.90;;;;;;4981594;28;20097;-72
2023/03/03 04:01:56;;;;;;;22.55;7.00;;;1.90;99.90;;;;;;4969028;28;20042;-72
2023/03/03 04:04:22;;;;;;;16.67;6.28;;;1.90;99.90;;;;;;4976243;28;20400;-72
2023/03/03 04:06:48;;;;;;;14.15;5.75;;;1.90;99.90;;;;;;4974235;28;20035;-72
2023/03/03 04:09:14;;;;;;;18.00;5.93;;;2.00;99.90;;;;;;4970331;28;20051;-72
2023/03/03 04:11:40;;;;;;;23.30;7.32;;;1.90;99.90;;;;;;4979859;28;20081;-72
2023/03/03 04:14:06;;;;;;;13.70;5.90;;;2.00;99.90;;;;;;4972431;28;20057;-72
2023/03/03 04:16:31;;;;;;;19.27;6.57;;;2.00;99.90;;;;;;4979408;28;20113;-72
2023/03/03 04:18:57;;;;;;;15.05;6.03;;;1.90;99.90;;;;;;4971139;28;20065;-71
2023/03/03 04:21:24;;;;;;;13.93;5.97;;;1.90;99.90;;;;;;4976037;28;20033;-72
2023/03/03 04:23:49;;;;;;;18.17;5.43;;;2.00;99.90;;;;;;4976716;28;20394;-72
2023/03/03 04:26:15;;;;;;;18.55;5.82;;;2.00;99.90;;;;;;4979236;28;20035;-72
2023/03/03 04:28:40;;;;;;;16.83;6.85;;;2.00;99.90;;;;;;4977587;28;20027;-71
2023/03/03 04:31:06;;;;;;;15.90;5.65;;;2.00;99.90;;;;;;4981418;28;20030;-72
2023/03/03 04:33:32;;;;;;;20.88;6.25;;;2.00;99.90;;;;;;4967763;28;20572;-72
2023/03/03 04:35:58;;;;;;;15.18;5.43;;;2.10;99.90;;;;;;4974985;28;20438;-72
2023/03/03 04:38:23;;;;;;;14.10;5.00;;;2.20;99.90;;;;;;4979890;28;20438;-72
2023/03/03 04:40:49;;;;;;;19.67;5.65;;;2.10;99.90;;;;;;4980486;28;20042;-71
2023/03/03 04:43:15;;;;;;;14.20;5.30;;;2.10;99.90;;;;;;4979248;28;20530;-71
2023/03/03 04:45:40;;;;;;;15.38;5.40;;;2.10;99.90;;;;;;4974406;28;20582;-71
2023/03/03 04:48:06;;;;;;;14.38;5.43;;;2.10;99.90;;;;;;4977644;28;20027;-72
2023/03/03 04:50:31;;;;;;;14.20;5.00;;;2.10;99.90;;;;;;4975612;28;20114;-71
2023/03/03 04:52:57;;;;;;;15.50;5.10;;;2.20;99.90;;;;;;4971900;28;20134;-72
2023/03/03 04:55:23;;;;;;;15.05;5.25;;;2.20;99.90;;;;;;4985572;28;20034;-73
2023/03/03 04:57:48;;;;;;;16.73;5.15;;;2.20;99.90;;;;;;4971880;28;20058;-72
2023/03/03 05:00:14;;;;;;;14.73;5.15;;;2.20;99.90;;;;;;4970632;28;20126;-72
2023/03/03 05:02:41;;;;;;;14.18;5.00;;;2.20;99.90;;;;;;4974214;28;20054;-72
2023/03/03 05:05:12;;;;;;;14.32;5.30;;;2.10;99.90;;;;;;4974482;28;20061;-72
2023/03/03 05:07:38;;;;;;;20.48;5.82;;;2.20;99.90;;;;;;4972531;28;20031;-72
2023/03/03 05:10:05;;;;;;;21.27;5.63;;;2.20;99.90;;;;;;4975827;28;20022;-72
2023/03/03 05:12:31;;;;;;;21.25;6.40;;;2.20;99.90;;;;;;4963869;28;20062;-71
2023/03/03 05:14:56;;;;;;;27.45;7.78;;;2.20;99.90;;;;;;4976754;28;20581;-72
2023/03/03 05:17:22;;;;;;;22.17;7.68;;;2.20;99.90;;;;;;4978300;28;20046;-72
2023/03/03 05:19:48;;;;;;;24.67;6.82;;;2.20;99.90;;;;;;4975166;28;20030;-73
2023/03/03 05:22:13;;;;;;;20.13;6.85;;;2.20;99.90;;;;;;4974257;28;20057;-73
2023/03/03 05:24:41;;;;;;;20.17;5.95;;;2.20;99.90;;;;;;4984251;28;20061;-73
2023/03/03 05:27:07;;;;;;;20.05;6.20;;;2.20;99.90;;;;;;4975901;28;20830;-72
2023/03/03 05:29:36;;;;;;;28.17;7.10;;;2.20;99.90;;;;;;4973492;28;20126;-73
2023/03/03 05:32:01;;;;;;;25.52;6.72;;;2.20;99.90;;;;;;4990133;28;20566;-72
2023/03/03 05:34:27;;;;;;;22.95;7.70;;;2.20;99.90;;;;;;4978891;28;20519;-73
2023/03/03 05:36:52;;;;;;;27.63;7.55;;;2.20;99.90;;;;;;4985469;28;20026;-72
2023/03/03 05:39:18;;;;;;;32.47;7.10;;;2.10;99.90;;;;;;4965092;28;20026;-73
2023/03/03 05:41:43;;;;;;;24.38;8.05;;;2.20;99.90;;;;;;4972832;28;20815;-73
2023/03/03 05:44:09;;;;;;;29.55;7.68;;;2.20;99.90;;;;;;4974854;28;20085;-73
2023/03/03 05:46:35;;;;;;;29.15;7.38;;;2.20;99.90;;;;;;4982834;28;20050;-72
2023/03/03 05:49:00;;;;;;;25.52;6.97;;;2.20;99.90;;;;;;4977949;28;20042;-72
2023/03/03 05:51:26;;;;;;;25.77;8.05;;;2.20;99.90;;;;;;4990365;28;20030;-73
2023/03/03 05:53:51;;;;;;;23.13;8.15;;;2.30;99.90;;;;;;4990109;28;20034;-73
2023/03/03 05:56:17;;;;;;;21.10;6.80;;;2.30;99.90;;;;;;4989794;28;20125;-73
2023/03/03 05:58:43;;;;;;;17.08;6.70;;;2.30;99.90;;;;;;4989675;28;20034;-73
2023/03/03 06:01:09;;;;;;;24.92;7.30;;;2.30;99.90;;;;;;4982706;28;20038;-73
2023/03/03 06:03:34;;;;;;;21.77;6.55;;;2.30;99.90;;;;;;4985539;28;20744;-73
2023/03/03 06:06:00;;;;;;;21.33;6.70;;;2.30;99.90;;;;;;4990262;28;20034;-72
2023/03/03 06:08:26;;;;;;;17.65;6.60;;;2.40;99.90;;;;;;4982608;28;20042;-73
2023/03/03 06:10:51;;;;;;;19.58;5.75;;;2.40;99.90;;;;;;4977747;28;20133;-73
2023/03/03 06:13:17;;;;;;;22.08;6.60;;;2.40;99.90;;;;;;4984771;28;20382;-73
2023/03/03 06:15:42;;;;;;;19.52;5.55;;;2.40;99.90;;;;;;4985758;28;20073;-73
2023/03/03 06:18:08;;;;;;;21.35;6.68;;;2.40;99.90;;;;;;4971870;28;20042;-72
2023/03/03 06:20:34;;;;;;;14.52;6.03;;;2.50;99.90;;;;;;4970138;28;20035;-72
2023/03/03 06:23:00;;;;;;;22.42;6.13;;;2.50;99.90;;;;;;4970086;28;20117;-72
2023/03/03 06:25:26;;;;;;;15.93;5.78;;;2.50;99.90;;;;;;4967829;28;20031;-72
2023/03/03 06:27:52;;;;;;;25.50;5.75;;;2.50;99.90;;;;;;4971974;28;20043;-73
2023/03/03 06:30:18;;;;;;;20.65;6.22;;;2.50;99.90;;;;;;4969504;28;20034;-72
2023/03/03 06:32:44;;;;;;;18.73;5.70;;;2.60;99.90;;;;;;4968689;28;20142;-72
2023/03/03 06:35:10;;;;;;;15.90;6.22;;;2.60;99.90;;;;;;4972394;28;20019;-73
2023/03/03 06:37:36;;;;;;;17.95;5.78;;;2.60;99.90;;;;;;4972396;28;20035;-73
2023/03/03 06:40:04;;;;;;;16.88;7.25;;;2.50;99.90;;;;;;4970430;28;20038;-73
2023/03/03 06:42:30;;;;;;;16.90;6.22;;;2.60;99.90;;;;;;4972536;28;20031;-73
2023/03/03 06:44:55;;;;;;;15.95;5.80;;;2.60;99.90;;;;;;4972642;28;20041;-72
2023/03/03 06:47:21;;;;;;;17.95;6.40;;;2.50;99.90;;;;;;4973105;28;20026;-73
2023/03/03 06:49:46;;;;;;;22.08;7.43;;;2.60;99.90;;;;;;4970763;28;20133;-72
2023/03/03 06:52:17;;;;;;;16.50;6.43;;;2.60;99.90;;;;;;4971444;28;20492;-73
2023/03/03 06:54:43;;;;;;;17.20;6.63;;;2.60;99.90;;;;;;4965770;28;20051;-73
2023/03/03 06:57:29;;;;;;;14.98;5.28;;;2.70;99.90;;;;;;4970631;28;20033;-73
2023/03/03 06:59:59;;;;;;;14.55;5.15;;;2.70;99.90;;;;;;4967492;28;20041;-73
2023/03/03 07:02:24;;;;;;;13.37;4.83;;;2.60;99.90;;;;;;4968738;28;20038;-74
2023/03/03 07:04:52;;;;;;;17.60;6.40;;;2.70;99.90;;;;;;4969783;28;20993;-73
2023/03/03 07:07:20;;;;;;;14.93;5.65;;;2.70;99.90;;;;;;4969039;28;20045;-72
2023/03/03 07:09:48;;;;;;;18.17;4.95;;;2.80;99.90;;;;;;4973994;28;20041;-72
2023/03/03 07:12:23;;;;;;;13.00;4.78;;;2.80;99.90;;;;;;4967861;28;20039;-73
2023/03/03 07:15:11;;;;;;;17.45;5.03;;;2.80;99.90;;;;;;4965859;28;20407;-72
2023/03/03 07:17:44;;;;;;;12.38;4.70;;;2.80;99.90;;;;;;4971979;28;20491;-72
2023/03/03 07:20:26;;;;;;;10.77;4.38;;;2.80;99.90;;;;;;4971093;28;20128;-73
2023/03/03 07:22:52;;;;;;;10.88;3.70;;;2.90;99.90;;;;;;4968585;28;20034;-72
2023/03/03 07:25:38;;;;;;;12.38;3.95;;;2.90;99.90;;;;;;4968126;28;20569;-72
2023/03/03 07:28:22;;;;;;;8.77;3.50;;;3.00;99.90;;;;;;4965911;28;20038;-71
2023/03/03 07:30:47;;;;;;;9.40;3.50;;;3.00;99.90;;;;;;4995249;28;20835;-72
2023/03/03 07:33:28;;;;;;;8.43;3.50;;;3.00;99.90;;;;;;4970331;28;20031;-73
2023/03/03 07:35:55;;;;;;;;;;;3.00;99.90;;;;;;4965345;28;20027;-72
2023/03/03 07:38:41;;;;;;;9.07;3.67;;;3.00;99.90;;;;;;4972131;28;19921;-72
2023/03/03 07:41:25;;;;;;;9.13;3.58;;;3.10;99.90;;;;;;4967874;28;20589;-72
2023/03/03 07:43:56;;;;;;;10.27;4.40;;;3.10;99.90;;;;;;4964282;28;20073;-72
2023/03/03 07:46:29;;;;;;;10.75;3.75;;;3.10;99.90;;;;;;4970320;28;20039;-72
2023/03/03 07:48:59;;;;;;;11.00;4.18;;;3.10;99.90;;;;;;4989637;28;20034;-72
2023/03/03 07:51:32;;;;;;;8.35;3.22;;;3.10;99.90;;;;;;4990688;28;20035;-72
2023/03/03 07:54:27;;;;;;;9.85;3.67;;;3.20;99.90;;;;;;4988557;28;20041;-72
2023/03/03 07:57:17;;;;;;;9.60;4.30;;;3.30;99.90;;;;;;4984315;28;20045;-72
2023/03/03 07:59:48;;;;;;;11.68;4.32;;;3.30;99.90;;;;;;4965493;28;20545;-72
2023/03/03 08:02:38;;;;;;;13.45;4.15;;;3.30;99.90;;;;;;4984179;28;20181;-72
2023/03/03 08:05:35;;;;;;;13.73;4.60;;;3.30;99.90;;;;;;4986274;28;20486;-72
2023/03/03 08:08:31;;;;;;;12.18;5.30;;;3.30;99.90;;;;;;4986298;28;20073;-72
2023/03/03 08:10:59;;;;;;;15.80;6.20;;;3.40;99.90;;;;;;4983201;28;20042;-71
2023/03/03 08:13:36;;;;;;;20.58;5.90;;;3.60;99.90;;;;;;4982814;28;20026;-72
2023/03/03 08:16:02;;;;;;;15.32;6.15;;;3.60;99.90;;;;;;4984549;28;20030;-72
2023/03/03 08:18:33;;;;;;;16.45;6.28;;;3.70;99.90;;;;;;4986352;28;20599;-73
2023/03/03 08:21:20;;;;;;;15.52;5.07;;;3.80;99.90;;;;;;4984668;28;20031;-72
2023/03/03 08:23:48;;;;;;;11.32;4.68;;;3.80;99.90;;;;;;4982383;28;20041;-72
2023/03/03 08:26:15;;;;;;;17.27;4.72;;;3.90;99.90;;;;;;4984798;28;20053;-73
2023/03/03 08:28:41;;;;;;;9.85;3.83;;;4.00;99.90;;;;;;4985359;28;20046;-72
2023/03/03 08:31:07;;;;;;;11.75;4.00;;;4.00;99.90;;;;;;4985868;28;20443;-72
2023/03/03 08:33:32;;;;;;;11.63;4.18;;;4.00;99.90;;;;;;4985575;28;20100;-72
2023/03/03 08:35:58;;;;;;;8.25;3.35;;;4.10;99.90;;;;;;4984798;28;20089;-72
2023/03/03 08:38:24;;;;;;;12.13;3.33;;;4.20;99.90;;;;;;4983141;28;20395;-73
2023/03/03 08:40:50;;;;;;;6.60;3.03;;;4.20;99.90;;;;;;4984941;28;20034;-72
2023/03/03 08:43:20;;;;;;;9.82;3.65;;;4.20;99.90;;;;;;4983120;28;20034;-72
2023/03/03 08:45:47;;;;;;;7.60;3.15;;;4.30;99.90;;;;;;4982440;28;20035;-71
2023/03/03 08:48:13;;;;;;;12.52;3.25;;;4.30;99.90;;;;;;4983463;28;20607;-72
2023/03/03 08:50:39;;;;;;;5.75;2.95;;;4.30;99.90;;;;;;4971581;28;20033;-71
2023/03/03 08:53:06;;;;;;;7.30;3.63;;;4.40;99.90;;;;;;4986143;28;20042;-72
2023/03/03 08:55:32;;;;;;;7.82;2.95;;;4.40;99.90;;;;;;4983516;28;20030;-72
2023/03/03 08:57:57;;;;;;;7.88;3.17;;;4.40;99.90;;;;;;4984804;28;20057;-72
2023/03/03 09:00:23;;;;;;;9.50;3.78;;;4.40;99.90;;;;;;4984338;28;20054;-72
2023/03/03 09:02:49;;;;;;;6.43;2.90;;;4.60;99.90;;;;;;4966180;28;20129;-72
2023/03/03 09:05:16;;;;;;;10.07;3.30;;;4.70;99.90;;;;;;4983773;28;20440;-73
2023/03/03 09:07:44;;;;;;;8.02;3.20;;;4.70;99.90;;;;;;4983492;28;20085;-73
2023/03/03 09:10:13;;;;;;;9.48;3.03;;;4.70;99.90;;;;;;4988070;28;20050;-73
2023/03/03 09:12:41;;;;;;;7.97;3.65;;;4.80;99.90;;;;;;4987935;28;20065;-72
2023/03/03 09:15:21;;;;;;;5.40;2.75;;;4.90;99.90;;;;;;4981313;28;20129;-72
2023/03/03 09:17:48;;;;;;;7.35;2.95;;;5.10;99.90;;;;;;4982386;28;20070;-72
2023/03/03 09:20:51;;;;;;;9.15;2.47;;;5.20;99.90;;;;;;4986986;28;20034;-72
2023/03/03 09:23:35;;;;;;;7.20;2.30;;;5.20;99.90;;;;;;4955749;28;20093;-72
2023/03/03 09:26:23;;;;;;;6.68;2.38;;;5.20;99.90;;;;;;4988425;28;20034;-74
2023/03/03 09:28:48;;;;;;;14.93;2.40;;;5.20;99.90;;;;;;4959776;28;20027;-72
2023/03/03 09:31:37;;;;;;;8.02;3.55;;;5.30;99.90;;;;;;4985339;28;20042;-72
2023/03/03 09:34:18;;;;;;;10.63;3.00;;;5.30;99.90;;;;;;4986036;28;20081;-73
2023/03/03 09:36:44;;;;;;;6.32;2.30;;;5.50;99.90;;;;;;4985930;28;20046;-73
2023/03/03 09:39:22;;;;;;;6.15;2.38;;;5.70;99.90;;;;;;4985716;28;20133;-73
2023/03/03 09:42:25;;;;;;;7.07;2.28;;;6.00;99.90;;;;;;4968572;28;20038;-73
2023/03/03 09:45:06;;;;;;;7.03;2.80;;;6.10;99.90;;;;;;4967106;28;20030;-72
2023/03/03 09:47:50;;;;;;;5.78;2.90;;;6.00;99.90;;;;;;5000804;28;20034;-73
2023/03/03 09:50:38;;;;;;;5.05;2.20;;;6.00;99.90;;;;;;4998404;28;20060;-73
2023/03/03 09:53:54;;;;;;;6.15;2.70;;;5.90;99.90;;;;;;4982334;28;20038;-73
2023/03/03 09:56:34;;;;;;;7.75;2.75;;;5.90;99.90;;;;;;4925374;28;20038;-73
2023/03/03 09:59:16;;;;;;;8.48;2.45;;;6.00;99.90;;;;;;4985933;28;20026;-74
2023/03/03 10:02:00;;;;;;;7.28;2.53;;;6.10;99.90;;;;;;4989582;28;20105;-73
2023/03/03 10:04:50;;;;;;;5.85;2.60;;;6.10;99.90;;;;;;4992680;28;20076;-73
2023/03/03 10:07:50;;;;;;;8.90;2.65;;;6.00;99.90;;;;;;4999048;28;20034;-73
2023/03/03 10:10:28;;;;;;;10.02;3.70;;;6.10;99.90;;;;;;4982834;28;20133;-73
2023/03/03 10:13:17;;;;;;;6.28;2.40;;;6.10;99.90;;;;;;4985477;28;20026;-73
2023/03/03 10:16:15;;;;;;;4.88;2.15;;;6.10;99.90;;;;;;4986262;28;20558;-73
2023/03/03 10:18:48;;;;;;;9.35;2.78;;;6.20;99.90;;;;;;5007765;28;20671;-71
2023/03/03 10:21:36;;;;;;;5.07;2.05;;;6.10;99.90;;;;;;4992726;28;20027;-73
2023/03/03 10:24:23;;;;;;;10.40;2.40;;;6.30;99.90;;;;;;4989052;28;20035;-74
2023/03/03 10:27:01;;;;;;;7.97;2.70;;;6.40;99.90;;;;;;4984842;28;20034;-72
2023/03/03 10:29:47;;;;;;;11.98;3.80;;;6.30;99.90;;;;;;4995069;28;20046;-72
2023/03/03 10:32:28;;;;;;;8.82;2.60;;;6.30;99.90;;;;;;4986244;28;20108;-72
2023/03/03 10:35:18;;;;;;;6.30;1.83;;;6.30;99.90;;;;;;4992461;28;20034;-73
2023/03/03 10:38:13;;;;;;;4.50;1.92;;;6.30;99.90;;;;;;4969721;28;20047;-72
2023/03/03 10:41:07;;;;;;;6.80;1.95;;;6.30;99.90;;;;;;4951065;28;20395;-72
2023/03/03 10:43:54;;;;;;;5.00;1.60;;;6.20;99.90;;;;;;4952692;28;20531;-72
2023/03/03 10:46:53;;;;;;;9.85;1.80;;;6.10;99.90;;;;;;4970354;28;20549;-72
2023/03/03 10:49:38;;;;;;;3.88;1.90;;;6.20;99.90;;;;;;4955071;28;20109;-71
2023/03/03 10:52:30;;;;;;;5.78;1.70;;;6.20;99.90;;;;;;4968763;28;20034;-72
2023/03/03 10:55:19;;;;;;;5.72;2.55;;;6.20;99.90;;;;;;4991155;28;20042;-72
2023/03/03 10:58:07;;;;;;;3.38;1.42;;;6.20;99.90;;;;;;4982199;28;20137;-73
2023/03/03 11:00:41;;;;;;;4.70;1.88;;;6.30;99.90;;;;;;4986713;28;20052;-73
2023/03/03 11:03:27;;;;;;;4.85;1.50;;;6.40;99.90;;;;;;4986173;28;20045;-73
2023/03/03 11:06:27;;;;;;;4.82;1.60;;;6.50;99.90;;;;;;4987906;28;20045;-72
2023/03/03 11:09:14;;;;;;;6.10;2.08;;;6.60;99.90;;;;;;4940182;28;20047;-72
2023/03/03 11:12:03;;;;;;;7.65;1.30;;;6.60;99.90;;;;;;4989271;28;20047;-72
2023/03/03 11:14:40;;;;;;;5.43;1.35;;;6.70;99.90;;;;;;4992638;28;20046;-72
2023/03/03 11:17:28;;;;;;;8.20;1.67;;;6.90;99.90;;;;;;4991245;28;20041;-71
2023/03/03 11:20:31;;;;;;;3.10;1.10;;;7.00;99.90;;;;;;4989225;28;20104;-72
2023/03/03 11:23:05;;;;;;;4.93;1.70;;;7.10;99.90;;;;;;4982369;28;20703;-72
2023/03/03 11:25:39;;;;;;;5.18;1.67;;;7.20;99.90;;;;;;4987530;28;20065;-72
2023/03/03 11:28:14;;;;;;;2.28;0.80;;;7.30;99.90;;;;;;4982127;28;20049;-72
2023/03/03 11:30:56;;;;;;;4.93;1.63;;;7.50;99.90;;;;;;4969957;28;20042;-72
2023/03/03 11:33:33;;;;;;;4.40;0.70;;;7.70;99.90;;;;;;4969905;28;20073;-72
2023/03/03 11:36:19;;;;;;;3.17;0.80;;;7.60;99.90;;;;;;4973042;28;20058;-72
2023/03/03 11:38:50;;;;;;;1.63;0.80;;;7.50;99.90;;;;;;4964967;28;20042;-72
2023/03/03 11:41:31;;;;;;;2.92;1.08;;;7.50;99.90;;;;;;4989864;28;20037;-72
2023/03/03 11:44:17;;;;;;;2.33;0.68;;;7.40;99.90;;;;;;4989709;28;20039;-74
2023/03/03 11:46:57;;;;;;;2.65;1.33;;;7.50;99.90;;;;;;5003188;28;20589;-72
2023/03/03 11:49:40;;;;;;;3.95;0.93;;;7.50;99.90;;;;;;4989699;28;20474;-73
2023/03/03 11:52:24;;;;;;;5.40;1.20;;;7.60;99.90;;;;;;4988823;28;20023;-73
2023/03/03 11:55:04;;;;;;;3.83;0.75;;;7.80;99.90;;;;;;4989544;28;20597;-73
2023/03/03 11:57:52;;;;;;;2.30;0.60;;;7.90;99.90;;;;;;4989686;28;20042;-73
2023/03/03 12:00:31;;;;;;;2.72;0.60;;;8.20;99.90;;;;;;4973873;28;20046;-73
2023/03/03 12:03:09;;;;;;;4.07;0.55;;;8.40;99.90;;;;;;4968326;28;20030;-72
2023/03/03 12:05:45;;;;;;;6.30;0.52;;;8.30;99.90;;;;;;4991605;28;20038;-74
2023/03/03 12:08:32;;;;;;;2.30;0.60;;;8.30;99.90;;;;;;4971907;28;20037;-73
2023/03/03 12:11:35;;;;;;;4.70;0.30;;;8.30;99.90;;;;;;4987253;28;20046;-72
2023/03/03 12:14:47;;;;;;;2.67;0.60;;;8.40;99.90;;;;;;4963929;28;20042;-73
2023/03/03 12:17:53;;;;;;;2.38;1.00;;;8.60;99.90;;;;;;4925892;29;20440;-73
2023/03/03 12:20:30;;;;;;;2.35;0.68;;;8.60;99.90;;;;;;4907925;29;20103;-73
2023/03/03 12:23:01;;;;;;;2.35;0.93;;;8.50;99.90;;;;;;4971342;28;20505;-73
2023/03/03 12:25:39;;;;;;;2.45;0.40;;;8.50;99.90;;;;;;4965695;28;20731;-72
2023/03/03 12:28:14;;;;;;;1.25;0.50;;;8.40;99.90;;;;;;4965833;28;20038;-73
2023/03/03 12:31:00;;;;;;;2.67;0.70;;;8.30;99.90;;;;;;4967334;28;20049;-71
2023/03/03 12:33:52;;;;;;;4.20;0.75;;;8.30;99.90;;;;;;4962244;28;20888;-74
2023/03/03 12:36:30;;;;;;;7.72;0.70;;;8.30;99.90;;;;;;4964528;28;20455;-72
2023/03/03 12:38:56;;;;;;;3.10;1.10;;;8.30;99.90;;;;;;4965451;28;20149;-73
2023/03/03 12:41:43;;;;;;;1.00;0.45;;;8.30;99.90;;;;;;4979012;28;20496;-72
2023/03/03 12:44:21;;;;;;;0.95;0.38;;;8.40;99.90;;;;;;4967243;28;20042;-72
2023/03/03 12:47:13;;;;;;;0.93;0.50;;;8.50;99.90;;;;;;4969176;28;20088;-72
2023/03/03 12:49:57;;;;;;;2.17;0.60;;;8.50;99.90;;;;;;4981630;28;20042;-72
2023/03/03 12:52:28;;;;;;;4.40;0.70;;;8.50;99.90;;;;;;4972061;28;20038;-73
2023/03/03 12:55:01;;;;;;;5.35;0.75;;;8.40;99.90;;;;;;4962723;28;20121;-72
2023/03/03 12:58:00;;;;;;;2.35;0.28;;;8.30;99.90;;;;;;4969192;28;20053;-74
2023/03/03 13:00:27;;;;;;;2.92;0.30;;;8.10;99.90;;;;;;4980428;28;20546;-73
2023/03/03 13:03:02;;;;;;;2.53;0.20;;;8.10;99.90;;;;;;4966917;28;20065;-71
2023/03/03 13:05:47;;;;;;;0.93;0.30;;;8.30;99.90;;;;;;4963808;28;20045;-73
2023/03/03 13:08:54;;;;;;;1.38;0.30;;;8.50;99.90;;;;;;4967703;28;20470;-74
2023/03/03 13:11:29;;;;;;;3.42;0.30;;;8.90;99.90;;;;;;4959125;28;20455;-72
2023/03/03 13:14:32;;;;;;;0.45;0.17;;;9.10;99.90;;;;;;4964797;28;20408;-73
2023/03/03 13:17:01;;;;;;;1.77;0.35;;;9.10;99.90;;;;;;4984931;28;20479;-73
2023/03/03 13:19:36;;;;;;;2.60;0.40;;;9.10;99.90;;;;;;4991094;28;20419;-72
2023/03/03 13:22:12;;;;;;;0.52;0.20;;;9.10;99.90;;;;;;5006234;28;20041;-73